sensor_id;sensor_type;location;lat;lon;timestamp;P1;durP1;ratioP1;P2;durP2;ratioP2
63693;SDS011;49839;51.798;10.954;2023-05-10T00:00:04;11.18;;;2.60;;
63693;SDS011;49839;51.798;10.954;2023-05-10T00:02:33;4.43;;;2.53;;
63693;SDS011;49839;51.798;10.954;2023-05-10T00:05:01;4.88;;;2.50;;
63693;SDS011;49839;51.798;10.954;2023-05-10T00:07:29;7.75;;;3.15;;
63693;SDS011;49839;51.798;10.954;2023-05-10T00:09:57;6.30;;;2.67;;
63693;SDS011;49839;51.798;10.954;2023-05-10T00:12:25;6.37;;;2.67;;
63693;SDS011;49839;51.798;10.954;2023-05-10T00:14:53;5.45;;;2.53;;
63693;SDS011;49839;51.798;10.954;2023-05-10T00:17:20;5.00;;;2.70;;
63693;SDS011;49839;51.798;10.954;2023-05-10T00:19:48;4.10;;;2.40;;
63693;SDS011;49839;51.798;10.954;2023-05-10T00:22:15;5.68;;;2.67;;
63693;SDS011;49839;51.798;10.954;2023-05-10T00:24:43;7.30;;;2.47;;
63693;SDS011;49839;51.798;10.954;2023-05-10T00:27:12;4.45;;;2.58;;
63693;SDS011;49839;51.798;10.954;2023-05-10T00:29:39;5.47;;;2.50;;
63693;SDS011;49839;51.798;10.954;2023-05-10T00:32:07;5.45;;;2.45;;
63693;SDS011;49839;51.798;10.954;2023-05-10T00:34:35;5.18;;;2.28;;
63693;SDS011;49839;51.798;10.954;2023-05-10T00:37:02;6.93;;;2.45;;
63693;SDS011;49839;51.798;10.954;2023-05-10T00:39:30;6.20;;;2.58;;
63693;SDS011;49839;51.798;10.954;2023-05-10T00:41:57;6.30;;;2.33;;
63693;SDS011;49839;51.798;10.954;2023-05-10T00:44:27;6.32;;;2.60;;
63693;SDS011;49839;51.798;10.954;2023-05-10T00:46:57;4.45;;;2.28;;
63693;SDS011;49839;51.798;10.954;2023-05-10T00:49:25;5.50;;;2.88;;
63693;SDS011;49839;51.798;10.954;2023-05-10T00:51:53;6.13;;;2.60;;
63693;SDS011;49839;51.798;10.954;2023-05-10T00:54:21;3.85;;;2.28;;
63693;SDS011;49839;51.798;10.954;2023-05-10T00:56:48;6.65;;;2.40;;
63693;SDS011;49839;51.798;10.954;2023-05-10T00:59:16;6.47;;;2.70;;
63693;SDS011;49839;51.798;10.954;2023-05-10T01:01:45;5.63;;;2.40;;
63693;SDS011;49839;51.798;10.954;2023-05-10T01:04:14;6.45;;;2.45;;
63693;SDS011;49839;51.798;10.954;2023-05-10T01:06:42;5.78;;;2.30;;
63693;SDS011;49839;51.798;10.954;2023-05-10T01:09:10;5.22;;;2.20;;
63693;SDS011;49839;51.798;10.954;2023-05-10T01:11:38;5.20;;;2.70;;
63693;SDS011;49839;51.798;10.954;2023-05-10T01:14:07;7.03;;;2.38;;
63693;SDS011;49839;51.798;10.954;2023-05-10T01:16:35;5.55;;;2.50;;
63693;SDS011;49839;51.798;10.954;2023-05-10T01:19:06;4.22;;;2.10;;
63693;SDS011;49839;51.798;10.954;2023-05-10T01:21:43;5.07;;;2.40;;
63693;SDS011;49839;51.798;10.954;2023-05-10T01:27:54;5.80;;;2.75;;
63693;SDS011;49839;51.798;10.954;2023-05-10T01:30:46;6.10;;;1.80;;
63693;SDS011;49839;51.798;10.954;2023-05-10T01:33:32;4.78;;;2.30;;
63693;SDS011;49839;51.798;10.954;2023-05-10T01:36:03;4.60;;;2.40;;
63693;SDS011;49839;51.798;10.954;2023-05-10T01:38:38;6.65;;;2.72;;
63693;SDS011;49839;51.798;10.954;2023-05-10T01:41:13;4.30;;;2.10;;
63693;SDS011;49839;51.798;10.954;2023-05-10T01:43:48;5.80;;;2.40;;
63693;SDS011;49839;51.798;10.954;2023-05-10T01:46:24;4.05;;;2.20;;
63693;SDS011;49839;51.798;10.954;2023-05-10T01:48:57;5.93;;;1.90;;
63693;SDS011;49839;51.798;10.954;2023-05-10T01:51:29;3.92;;;2.10;;
63693;SDS011;49839;51.798;10.954;2023-05-10T01:54:03;4.45;;;2.08;;
63693;SDS011;49839;51.798;10.954;2023-05-10T01:56:33;3.85;;;2.08;;
63693;SDS011;49839;51.798;10.954;2023-05-10T01:59:05;6.30;;;2.45;;
63693;SDS011;49839;51.798;10.954;2023-05-10T02:01:38;4.00;;;2.17;;
63693;SDS011;49839;51.798;10.954;2023-05-10T02:04:09;8.95;;;2.22;;
63693;SDS011;49839;51.798;10.954;2023-05-10T02:06:38;4.63;;;2.42;;
63693;SDS011;49839;51.798;10.954;2023-05-10T02:09:08;6.00;;;2.63;;
63693;SDS011;49839;51.798;10.954;2023-05-10T02:11:37;6.78;;;2.17;;
63693;SDS011;49839;51.798;10.954;2023-05-10T02:14:06;4.45;;;2.30;;
63693;SDS011;49839;51.798;10.954;2023-05-10T02:16:36;4.50;;;2.20;;
63693;SDS011;49839;51.798;10.954;2023-05-10T02:19:06;6.90;;;2.50;;
63693;SDS011;49839;51.798;10.954;2023-05-10T02:21:37;4.35;;;2.03;;
63693;SDS011;49839;51.798;10.954;2023-05-10T02:24:06;6.25;;;1.92;;
63693;SDS011;49839;51.798;10.954;2023-05-10T02:26:35;6.90;;;2.60;;
63693;SDS011;49839;51.798;10.954;2023-05-10T02:29:05;3.65;;;2.00;;
63693;SDS011;49839;51.798;10.954;2023-05-10T02:31:33;4.32;;;2.30;;
63693;SDS011;49839;51.798;10.954;2023-05-10T02:34:05;7.13;;;2.50;;
63693;SDS011;49839;51.798;10.954;2023-05-10T02:36:34;4.95;;;2.17;;
63693;SDS011;49839;51.798;10.954;2023-05-10T02:39:03;5.65;;;2.40;;
63693;SDS011;49839;51.798;10.954;2023-05-10T02:41:35;6.22;;;2.60;;
63693;SDS011;49839;51.798;10.954;2023-05-10T02:44:04;4.63;;;2.60;;
63693;SDS011;49839;51.798;10.954;2023-05-10T02:46:34;7.55;;;2.20;;
63693;SDS011;49839;51.798;10.954;2023-05-10T02:49:03;4.60;;;2.05;;
63693;SDS011;49839;51.798;10.954;2023-05-10T02:51:31;5.72;;;2.50;;
63693;SDS011;49839;51.798;10.954;2023-05-10T02:54:04;7.43;;;2.22;;
63693;SDS011;49839;51.798;10.954;2023-05-10T02:56:35;4.60;;;2.30;;
63693;SDS011;49839;51.798;10.954;2023-05-10T02:59:07;4.22;;;2.10;;
63693;SDS011;49839;51.798;10.954;2023-05-10T03:01:35;7.57;;;2.60;;
63693;SDS011;49839;51.798;10.954;2023-05-10T03:04:03;8.35;;;2.45;;
63693;SDS011;49839;51.798;10.954;2023-05-10T03:06:31;4.85;;;2.40;;
63693;SDS011;49839;51.798;10.954;2023-05-10T03:08:59;4.72;;;2.28;;
63693;SDS011;49839;51.798;10.954;2023-05-10T03:11:32;4.88;;;2.50;;
63693;SDS011;49839;51.798;10.954;2023-05-10T03:14:15;8.65;;;2.47;;
63693;SDS011;49839;51.798;10.954;2023-05-10T03:16:52;6.43;;;3.20;;
63693;SDS011;49839;51.798;10.954;2023-05-10T03:19:26;5.68;;;2.38;;
63693;SDS011;49839;51.798;10.954;2023-05-10T03:21:58;4.40;;;2.15;;
63693;SDS011;49839;51.798;10.954;2023-05-10T03:24:31;7.32;;;2.50;;
63693;SDS011;49839;51.798;10.954;2023-05-10T03:27:04;5.03;;;2.50;;
63693;SDS011;49839;51.798;10.954;2023-05-10T03:29:33;4.80;;;2.60;;
63693;SDS011;49839;51.798;10.954;2023-05-10T03:32:01;5.30;;;2.85;;
63693;SDS011;49839;51.798;10.954;2023-05-10T03:34:29;4.60;;;2.60;;
63693;SDS011;49839;51.798;10.954;2023-05-10T03:36:57;5.50;;;2.80;;
63693;SDS011;49839;51.798;10.954;2023-05-10T03:39:25;4.70;;;2.45;;
63693;SDS011;49839;51.798;10.954;2023-05-10T03:41:53;6.80;;;2.88;;
63693;SDS011;49839;51.798;10.954;2023-05-10T03:44:22;6.43;;;2.65;;
63693;SDS011;49839;51.798;10.954;2023-05-10T03:46:50;5.07;;;2.50;;
63693;SDS011;49839;51.798;10.954;2023-05-10T03:49:19;6.20;;;2.58;;
63693;SDS011;49839;51.798;10.954;2023-05-10T03:51:46;6.63;;;2.40;;
63693;SDS011;49839;51.798;10.954;2023-05-10T03:54:14;4.40;;;2.40;;
63693;SDS011;49839;51.798;10.954;2023-05-10T03:56:42;4.80;;;2.30;;
63693;SDS011;49839;51.798;10.954;2023-05-10T03:59:09;4.40;;;2.03;;
63693;SDS011;49839;51.798;10.954;2023-05-10T04:01:38;5.78;;;2.47;;
63693;SDS011;49839;51.798;10.954;2023-05-10T04:04:06;5.88;;;2.30;;
63693;SDS011;49839;51.798;10.954;2023-05-10T04:06:33;4.38;;;2.47;;
63693;SDS011;49839;51.798;10.954;2023-05-10T04:09:01;4.90;;;2.40;;
63693;SDS011;49839;51.798;10.954;2023-05-10T04:11:30;5.50;;;2.55;;
63693;SDS011;49839;51.798;10.954;2023-05-10T04:13:58;4.97;;;2.60;;
63693;SDS011;49839;51.798;10.954;2023-05-10T04:16:25;6.93;;;2.63;;
63693;SDS011;49839;51.798;10.954;2023-05-10T04:18:54;4.32;;;2.38;;
63693;SDS011;49839;51.798;10.954;2023-05-10T04:21:22;6.97;;;2.55;;
63693;SDS011;49839;51.798;10.954;2023-05-10T04:23:49;9.05;;;4.97;;
63693;SDS011;49839;51.798;10.954;2023-05-10T04:26:17;10.30;;;4.50;;
63693;SDS011;49839;51.798;10.954;2023-05-10T04:28:45;8.65;;;5.07;;
63693;SDS011;49839;51.798;10.954;2023-05-10T04:31:12;5.85;;;3.60;;
63693;SDS011;49839;51.798;10.954;2023-05-10T04:33:40;6.88;;;3.22;;
63693;SDS011;49839;51.798;10.954;2023-05-10T04:36:09;9.20;;;5.30;;
63693;SDS011;49839;51.798;10.954;2023-05-10T04:38:37;4.75;;;2.55;;
63693;SDS011;49839;51.798;10.954;2023-05-10T04:41:05;4.55;;;2.60;;
63693;SDS011;49839;51.798;10.954;2023-05-10T04:43:33;4.55;;;2.45;;
63693;SDS011;49839;51.798;10.954;2023-05-10T04:46:01;7.53;;;2.33;;
63693;SDS011;49839;51.798;10.954;2023-05-10T04:48:29;7.22;;;2.78;;
63693;SDS011;49839;51.798;10.954;2023-05-10T04:50:57;4.93;;;3.03;;
63693;SDS011;49839;51.798;10.954;2023-05-10T04:53:26;8.15;;;4.80;;
63693;SDS011;49839;51.798;10.954;2023-05-10T04:55:53;7.57;;;4.40;;
63693;SDS011;49839;51.798;10.954;2023-05-10T04:58:21;8.70;;;4.57;;
63693;SDS011;49839;51.798;10.954;2023-05-10T05:00:48;8.23;;;4.55;;
63693;SDS011;49839;51.798;10.954;2023-05-10T05:03:16;8.07;;;2.90;;
63693;SDS011;49839;51.798;10.954;2023-05-10T05:05:44;5.43;;;2.25;;
63693;SDS011;49839;51.798;10.954;2023-05-10T05:08:11;5.22;;;2.45;;
63693;SDS011;49839;51.798;10.954;2023-05-10T05:10:41;7.07;;;2.35;;
63693;SDS011;49839;51.798;10.954;2023-05-10T05:13:09;4.32;;;2.17;;
63693;SDS011;49839;51.798;10.954;2023-05-10T05:15:36;6.97;;;2.45;;
63693;SDS011;49839;51.798;10.954;2023-05-10T05:18:04;5.68;;;2.15;;
63693;SDS011;49839;51.798;10.954;2023-05-10T05:20:32;6.53;;;2.38;;
63693;SDS011;49839;51.798;10.954;2023-05-10T05:23:00;4.50;;;2.50;;
63693;SDS011;49839;51.798;10.954;2023-05-10T05:25:27;5.88;;;2.50;;
63693;SDS011;49839;51.798;10.954;2023-05-10T05:27:56;4.97;;;2.13;;
63693;SDS011;49839;51.798;10.954;2023-05-10T05:30:24;5.35;;;2.60;;
63693;SDS011;49839;51.798;10.954;2023-05-10T05:32:52;6.85;;;4.72;;
63693;SDS011;49839;51.798;10.954;2023-05-10T05:35:19;8.80;;;4.72;;
63693;SDS011;49839;51.798;10.954;2023-05-10T05:37:47;8.45;;;4.93;;
63693;SDS011;49839;51.798;10.954;2023-05-10T05:40:14;8.85;;;5.35;;
63693;SDS011;49839;51.798;10.954;2023-05-10T05:42:42;7.70;;;4.68;;
63693;SDS011;49839;51.798;10.954;2023-05-10T05:45:11;8.00;;;4.55;;
63693;SDS011;49839;51.798;10.954;2023-05-10T05:47:40;7.03;;;4.50;;
63693;SDS011;49839;51.798;10.954;2023-05-10T05:50:08;7.55;;;4.80;;
63693;SDS011;49839;51.798;10.954;2023-05-10T05:52:37;9.60;;;5.17;;
63693;SDS011;49839;51.798;10.954;2023-05-10T05:55:04;7.72;;;4.95;;
63693;SDS011;49839;51.798;10.954;2023-05-10T05:57:32;6.93;;;4.57;;
63693;SDS011;49839;51.798;10.954;2023-05-10T06:00:00;8.45;;;4.97;;
63693;SDS011;49839;51.798;10.954;2023-05-10T06:02:30;8.30;;;4.50;;
63693;SDS011;49839;51.798;10.954;2023-05-10T06:04:58;10.25;;;4.97;;
63693;SDS011;49839;51.798;10.954;2023-05-10T06:07:26;9.35;;;5.30;;
63693;SDS011;49839;51.798;10.954;2023-05-10T06:09:53;8.93;;;4.50;;
63693;SDS011;49839;51.798;10.954;2023-05-10T06:12:21;8.63;;;4.80;;
63693;SDS011;49839;51.798;10.954;2023-05-10T06:14:49;8.90;;;4.68;;
63693;SDS011;49839;51.798;10.954;2023-05-10T06:17:16;9.20;;;5.05;;
63693;SDS011;49839;51.798;10.954;2023-05-10T06:19:45;11.60;;;4.75;;
63693;SDS011;49839;51.798;10.954;2023-05-10T06:22:13;6.47;;;3.75;;
63693;SDS011;49839;51.798;10.954;2023-05-10T06:24:40;9.45;;;4.60;;
63693;SDS011;49839;51.798;10.954;2023-05-10T06:27:08;6.72;;;4.55;;
63693;SDS011;49839;51.798;10.954;2023-05-10T06:29:36;4.97;;;2.25;;
63693;SDS011;49839;51.798;10.954;2023-05-10T06:32:03;4.88;;;2.53;;
63693;SDS011;49839;51.798;10.954;2023-05-10T06:34:31;5.93;;;2.30;;
63693;SDS011;49839;51.798;10.954;2023-05-10T06:37:00;9.85;;;2.33;;
63693;SDS011;49839;51.798;10.954;2023-05-10T06:39:29;3.75;;;2.42;;
63693;SDS011;49839;51.798;10.954;2023-05-10T06:41:57;5.47;;;2.33;;
63693;SDS011;49839;51.798;10.954;2023-05-10T06:44:24;5.60;;;2.63;;
63693;SDS011;49839;51.798;10.954;2023-05-10T06:46:52;4.55;;;2.58;;
63693;SDS011;49839;51.798;10.954;2023-05-10T06:49:21;8.07;;;3.17;;
63693;SDS011;49839;51.798;10.954;2023-05-10T06:51:49;4.82;;;2.92;;
63693;SDS011;49839;51.798;10.954;2023-05-10T06:54:18;4.65;;;2.60;;
63693;SDS011;49839;51.798;10.954;2023-05-10T06:56:46;8.30;;;3.63;;
63693;SDS011;49839;51.798;10.954;2023-05-10T06:59:14;6.43;;;3.50;;
63693;SDS011;49839;51.798;10.954;2023-05-10T07:01:42;8.65;;;5.65;;
63693;SDS011;49839;51.798;10.954;2023-05-10T07:04:10;8.20;;;4.10;;
63693;SDS011;49839;51.798;10.954;2023-05-10T07:06:37;7.30;;;3.80;;
63693;SDS011;49839;51.798;10.954;2023-05-10T07:09:05;10.48;;;4.07;;
63693;SDS011;49839;51.798;10.954;2023-05-10T07:11:35;9.77;;;4.82;;
63693;SDS011;49839;51.798;10.954;2023-05-10T07:14:03;9.45;;;4.20;;
63693;SDS011;49839;51.798;10.954;2023-05-10T07:16:31;7.60;;;3.30;;
63693;SDS011;49839;51.798;10.954;2023-05-10T07:18:59;9.02;;;4.40;;
63693;SDS011;49839;51.798;10.954;2023-05-10T07:21:26;7.78;;;3.67;;
63693;SDS011;49839;51.798;10.954;2023-05-10T07:23:55;9.30;;;3.50;;
63693;SDS011;49839;51.798;10.954;2023-05-10T07:26:22;8.02;;;3.95;;
63693;SDS011;49839;51.798;10.954;2023-05-10T07:28:51;7.45;;;3.53;;
63693;SDS011;49839;51.798;10.954;2023-05-10T07:31:19;7.80;;;3.75;;
63693;SDS011;49839;51.798;10.954;2023-05-10T07:33:46;12.15;;;3.70;;
63693;SDS011;49839;51.798;10.954;2023-05-10T07:36:14;11.98;;;4.65;;
63693;SDS011;49839;51.798;10.954;2023-05-10T07:38:42;14.38;;;4.40;;
63693;SDS011;49839;51.798;10.954;2023-05-10T07:41:11;10.85;;;3.83;;
63693;SDS011;49839;51.798;10.954;2023-05-10T07:43:39;8.20;;;3.78;;
63693;SDS011;49839;51.798;10.954;2023-05-10T07:46:08;6.35;;;3.55;;
63693;SDS011;49839;51.798;10.954;2023-05-10T07:48:37;7.35;;;3.33;;
63693;SDS011;49839;51.798;10.954;2023-05-10T07:51:04;10.18;;;3.83;;
63693;SDS011;49839;51.798;10.954;2023-05-10T07:53:35;10.75;;;4.82;;
63693;SDS011;49839;51.798;10.954;2023-05-10T07:58:49;8.52;;;4.07;;
63693;SDS011;49839;51.798;10.954;2023-05-10T08:01:19;9.90;;;3.80;;
63693;SDS011;49839;51.798;10.954;2023-05-10T08:06:15;5.85;;;3.40;;
63693;SDS011;49839;51.798;10.954;2023-05-10T08:08:42;5.22;;;3.03;;
63693;SDS011;49839;51.798;10.954;2023-05-10T08:11:11;5.95;;;3.25;;
63693;SDS011;49839;51.798;10.954;2023-05-10T08:13:39;5.82;;;3.40;;
63693;SDS011;49839;51.798;10.954;2023-05-10T08:16:06;6.35;;;3.17;;
63693;SDS011;49839;51.798;10.954;2023-05-10T08:18:36;4.75;;;3.22;;
63693;SDS011;49839;51.798;10.954;2023-05-10T08:21:04;6.88;;;3.90;;
63693;SDS011;49839;51.798;10.954;2023-05-10T08:23:32;7.07;;;3.50;;
63693;SDS011;49839;51.798;10.954;2023-05-10T08:26:00;7.82;;;3.13;;
63693;SDS011;49839;51.798;10.954;2023-05-10T08:28:29;7.10;;;3.50;;
63693;SDS011;49839;51.798;10.954;2023-05-10T08:30:56;9.48;;;4.30;;
63693;SDS011;49839;51.798;10.954;2023-05-10T08:33:24;9.48;;;3.80;;
63693;SDS011;49839;51.798;10.954;2023-05-10T08:35:53;8.15;;;3.90;;
63693;SDS011;49839;51.798;10.954;2023-05-10T08:38:21;5.85;;;2.97;;
63693;SDS011;49839;51.798;10.954;2023-05-10T08:40:49;9.07;;;4.40;;
63693;SDS011;49839;51.798;10.954;2023-05-10T08:43:22;6.78;;;3.80;;
63693;SDS011;49839;51.798;10.954;2023-05-10T08:45:54;8.60;;;3.78;;
63693;SDS011;49839;51.798;10.954;2023-05-10T08:48:23;6.60;;;3.47;;
63693;SDS011;49839;51.798;10.954;2023-05-10T08:50:53;7.03;;;3.60;;
63693;SDS011;49839;51.798;10.954;2023-05-10T08:53:22;6.60;;;3.10;;
63693;SDS011;49839;51.798;10.954;2023-05-10T08:55:52;5.47;;;3.10;;
63693;SDS011;49839;51.798;10.954;2023-05-10T08:58:20;5.57;;;3.47;;
63693;SDS011;49839;51.798;10.954;2023-05-10T09:00:49;9.50;;;5.93;;
63693;SDS011;49839;51.798;10.954;2023-05-10T09:03:18;8.57;;;5.80;;
63693;SDS011;49839;51.798;10.954;2023-05-10T09:05:46;7.93;;;3.78;;
63693;SDS011;49839;51.798;10.954;2023-05-10T09:08:16;7.00;;;3.17;;
63693;SDS011;49839;51.798;10.954;2023-05-10T09:10:44;6.47;;;3.60;;
63693;SDS011;49839;51.798;10.954;2023-05-10T09:13:14;4.95;;;3.00;;
63693;SDS011;49839;51.798;10.954;2023-05-10T09:15:43;6.78;;;2.90;;
63693;SDS011;49839;51.798;10.954;2023-05-10T09:18:11;5.77;;;3.43;;
63693;SDS011;49839;51.798;10.954;2023-05-10T09:20:39;5.63;;;2.78;;
63693;SDS011;49839;51.798;10.954;2023-05-10T09:23:08;3.80;;;2.20;;
63693;SDS011;49839;51.798;10.954;2023-05-10T09:25:38;3.85;;;1.95;;
63693;SDS011;49839;51.798;10.954;2023-05-10T09:28:06;4.55;;;1.95;;
63693;SDS011;49839;51.798;10.954;2023-05-10T09:30:35;3.35;;;2.00;;
63693;SDS011;49839;51.798;10.954;2023-05-10T09:33:03;3.05;;;1.90;;
63693;SDS011;49839;51.798;10.954;2023-05-10T09:35:32;2.90;;;1.67;;
63693;SDS011;49839;51.798;10.954;2023-05-10T09:38:00;2.97;;;1.75;;
63693;SDS011;49839;51.798;10.954;2023-05-10T09:40:30;5.03;;;2.05;;
63693;SDS011;49839;51.798;10.954;2023-05-10T09:43:00;2.85;;;1.67;;
63693;SDS011;49839;51.798;10.954;2023-05-10T09:45:30;5.30;;;2.10;;
63693;SDS011;49839;51.798;10.954;2023-05-10T09:48:00;3.80;;;2.17;;
63693;SDS011;49839;51.798;10.954;2023-05-10T09:50:29;2.85;;;1.80;;
63693;SDS011;49839;51.798;10.954;2023-05-10T09:52:58;4.65;;;2.00;;
63693;SDS011;49839;51.798;10.954;2023-05-10T09:55:37;2.92;;;1.70;;
63693;SDS011;49839;51.798;10.954;2023-05-10T09:58:08;5.32;;;1.90;;
63693;SDS011;49839;51.798;10.954;2023-05-10T10:00:37;3.83;;;1.90;;
63693;SDS011;49839;51.798;10.954;2023-05-10T10:03:07;5.93;;;1.90;;
63693;SDS011;49839;51.798;10.954;2023-05-10T10:05:41;3.50;;;1.88;;
63693;SDS011;49839;51.798;10.954;2023-05-10T10:08:10;3.30;;;1.65;;
63693;SDS011;49839;51.798;10.954;2023-05-10T10:10:39;3.45;;;2.20;;
63693;SDS011;49839;51.798;10.954;2023-05-10T10:13:09;3.17;;;1.90;;
63693;SDS011;49839;51.798;10.954;2023-05-10T10:15:37;4.25;;;2.17;;
63693;SDS011;49839;51.798;10.954;2023-05-10T10:18:06;3.85;;;2.03;;
63693;SDS011;49839;51.798;10.954;2023-05-10T10:20:35;4.18;;;1.90;;
63693;SDS011;49839;51.798;10.954;2023-05-10T10:23:04;7.03;;;2.00;;
63693;SDS011;49839;51.798;10.954;2023-05-10T10:25:32;3.45;;;1.73;;
63693;SDS011;49839;51.798;10.954;2023-05-10T10:28:05;5.20;;;2.00;;
63693;SDS011;49839;51.798;10.954;2023-05-10T10:30:44;4.00;;;1.90;;
63693;SDS011;49839;51.798;10.954;2023-05-10T10:33:31;4.65;;;1.92;;
63693;SDS011;49839;51.798;10.954;2023-05-10T10:36:06;6.68;;;2.15;;
63693;SDS011;49839;51.798;10.954;2023-05-10T10:38:38;4.30;;;2.55;;
63693;SDS011;49839;51.798;10.954;2023-05-10T10:41:32;5.03;;;2.40;;
63693;SDS011;49839;51.798;10.954;2023-05-10T10:46:59;3.55;;;2.22;;
63693;SDS011;49839;51.798;10.954;2023-05-10T10:52:13;3.58;;;2.20;;
63693;SDS011;49839;51.798;10.954;2023-05-10T10:54:51;5.53;;;2.60;;
63693;SDS011;49839;51.798;10.954;2023-05-10T10:57:19;5.40;;;2.60;;
63693;SDS011;49839;51.798;10.954;2023-05-10T10:59:50;6.03;;;2.42;;
63693;SDS011;49839;51.798;10.954;2023-05-10T11:02:33;3.72;;;2.55;;
63693;SDS011;49839;51.798;10.954;2023-05-10T11:07:51;6.07;;;2.97;;
63693;SDS011;49839;51.798;10.954;2023-05-10T11:10:20;6.43;;;3.38;;
63693;SDS011;49839;51.798;10.954;2023-05-10T11:12:51;6.07;;;2.40;;
63693;SDS011;49839;51.798;10.954;2023-05-10T11:15:21;5.03;;;1.85;;
63693;SDS011;49839;51.798;10.954;2023-05-10T11:17:56;3.85;;;1.80;;
63693;SDS011;49839;51.798;10.954;2023-05-10T11:20:23;1.30;;;1.00;;
63693;SDS011;49839;51.798;10.954;2023-05-10T11:23:10;2.03;;;1.15;;
63693;SDS011;49839;51.798;10.954;2023-05-10T11:25:41;2.45;;;1.00;;
63693;SDS011;49839;51.798;10.954;2023-05-10T11:28:10;2.95;;;1.17;;
63693;SDS011;49839;51.798;10.954;2023-05-10T11:30:39;1.75;;;1.10;;
63693;SDS011;49839;51.798;10.954;2023-05-10T11:33:08;7.63;;;1.63;;
63693;SDS011;49839;51.798;10.954;2023-05-10T11:35:37;1.08;;;0.70;;
63693;SDS011;49839;51.798;10.954;2023-05-10T11:38:08;2.70;;;0.65;;
63693;SDS011;49839;51.798;10.954;2023-05-10T11:40:37;2.67;;;1.02;;
63693;SDS011;49839;51.798;10.954;2023-05-10T11:43:05;4.30;;;0.93;;
63693;SDS011;49839;51.798;10.954;2023-05-10T11:45:35;1.75;;;1.00;;
63693;SDS011;49839;51.798;10.954;2023-05-10T11:48:05;2.33;;;1.00;;
63693;SDS011;49839;51.798;10.954;2023-05-10T11:50:33;4.28;;;1.42;;
63693;SDS011;49839;51.798;10.954;2023-05-10T11:53:00;4.05;;;1.00;;
63693;SDS011;49839;51.798;10.954;2023-05-10T11:55:28;1.98;;;0.90;;
63693;SDS011;49839;51.798;10.954;2023-05-10T11:58:00;2.42;;;0.88;;
63693;SDS011;49839;51.798;10.954;2023-05-10T12:00:29;2.45;;;0.70;;
63693;SDS011;49839;51.798;10.954;2023-05-10T12:02:57;3.22;;;0.80;;
63693;SDS011;49839;51.798;10.954;2023-05-10T12:05:27;1.45;;;0.88;;
63693;SDS011;49839;51.798;10.954;2023-05-10T12:08:12;1.40;;;0.80;;
63693;SDS011;49839;51.798;10.954;2023-05-10T12:10:41;3.45;;;0.90;;
63693;SDS011;49839;51.798;10.954;2023-05-10T12:13:12;3.15;;;0.90;;
63693;SDS011;49839;51.798;10.954;2023-05-10T12:15:41;1.63;;;0.60;;
63693;SDS011;49839;51.798;10.954;2023-05-10T12:18:09;1.70;;;0.70;;
63693;SDS011;49839;51.798;10.954;2023-05-10T12:20:39;1.67;;;0.80;;
63693;SDS011;49839;51.798;10.954;2023-05-10T12:23:08;1.95;;;0.80;;
63693;SDS011;49839;51.798;10.954;2023-05-10T12:25:37;1.33;;;0.85;;
63693;SDS011;49839;51.798;10.954;2023-05-10T12:28:05;1.02;;;0.60;;
63693;SDS011;49839;51.798;10.954;2023-05-10T12:30:35;1.58;;;0.70;;
63693;SDS011;49839;51.798;10.954;2023-05-10T12:33:07;1.75;;;0.80;;
63693;SDS011;49839;51.798;10.954;2023-05-10T12:35:44;0.75;;;0.60;;
63693;SDS011;49839;51.798;10.954;2023-05-10T12:38:25;1.67;;;0.60;;
63693;SDS011;49839;51.798;10.954;2023-05-10T12:40:56;2.25;;;0.80;;
63693;SDS011;49839;51.798;10.954;2023-05-10T12:43:24;0.98;;;0.80;;
63693;SDS011;49839;51.798;10.954;2023-05-10T12:45:52;1.38;;;0.40;;
63693;SDS011;49839;51.798;10.954;2023-05-10T12:48:20;0.57;;;0.30;;
63693;SDS011;49839;51.798;10.954;2023-05-10T12:50:49;1.08;;;0.50;;
63693;SDS011;49839;51.798;10.954;2023-05-10T12:53:17;0.88;;;0.30;;
63693;SDS011;49839;51.798;10.954;2023-05-10T12:55:44;0.73;;;0.30;;
63693;SDS011;49839;51.798;10.954;2023-05-10T12:58:12;1.58;;;0.60;;
63693;SDS011;49839;51.798;10.954;2023-05-10T13:00:57;0.75;;;0.65;;
63693;SDS011;49839;51.798;10.954;2023-05-10T13:03:25;1.87;;;0.80;;
63693;SDS011;49839;51.798;10.954;2023-05-10T13:05:54;1.15;;;0.80;;
63693;SDS011;49839;51.798;10.954;2023-05-10T13:08:22;1.63;;;0.60;;
63693;SDS011;49839;51.798;10.954;2023-05-10T13:10:51;1.27;;;0.60;;
63693;SDS011;49839;51.798;10.954;2023-05-10T13:13:19;0.52;;;0.40;;
63693;SDS011;49839;51.798;10.954;2023-05-10T13:15:47;0.63;;;0.40;;
63693;SDS011;49839;51.798;10.954;2023-05-10T13:18:14;2.13;;;0.50;;
63693;SDS011;49839;51.798;10.954;2023-05-10T13:20:42;0.90;;;0.40;;
63693;SDS011;49839;51.798;10.954;2023-05-10T13:23:11;0.77;;;0.40;;
63693;SDS011;49839;51.798;10.954;2023-05-10T13:25:39;1.30;;;0.50;;
63693;SDS011;49839;51.798;10.954;2023-05-10T13:28:07;0.60;;;0.30;;
63693;SDS011;49839;51.798;10.954;2023-05-10T13:30:34;0.55;;;0.25;;
63693;SDS011;49839;51.798;10.954;2023-05-10T13:33:02;0.60;;;0.30;;
63693;SDS011;49839;51.798;10.954;2023-05-10T13:35:30;0.52;;;0.40;;
63693;SDS011;49839;51.798;10.954;2023-05-10T13:37:57;2.78;;;0.50;;
63693;SDS011;49839;51.798;10.954;2023-05-10T13:40:26;1.13;;;0.40;;
63693;SDS011;49839;51.798;10.954;2023-05-10T13:45:24;1.27;;;0.60;;
63693;SDS011;49839;51.798;10.954;2023-05-10T13:47:52;0.30;;;0.30;;
63693;SDS011;49839;51.798;10.954;2023-05-10T13:50:19;2.47;;;0.60;;
63693;SDS011;49839;51.798;10.954;2023-05-10T13:52:47;1.00;;;0.60;;
63693;SDS011;49839;51.798;10.954;2023-05-10T13:55:15;3.22;;;1.50;;
63693;SDS011;49839;51.798;10.954;2023-05-10T13:57:44;2.88;;;0.80;;
63693;SDS011;49839;51.798;10.954;2023-05-10T14:00:12;1.52;;;0.57;;
63693;SDS011;49839;51.798;10.954;2023-05-10T14:02:41;1.00;;;0.40;;
63693;SDS011;49839;51.798;10.954;2023-05-10T14:05:09;0.43;;;0.30;;
63693;SDS011;49839;51.798;10.954;2023-05-10T14:07:37;0.50;;;0.40;;
63693;SDS011;49839;51.798;10.954;2023-05-10T14:10:06;1.42;;;0.50;;
63693;SDS011;49839;51.798;10.954;2023-05-10T14:12:34;0.57;;;0.40;;
63693;SDS011;49839;51.798;10.954;2023-05-10T14:15:03;0.40;;;0.30;;
63693;SDS011;49839;51.798;10.954;2023-05-10T14:17:32;0.90;;;0.50;;
63693;SDS011;49839;51.798;10.954;2023-05-10T14:20:00;1.70;;;0.40;;
63693;SDS011;49839;51.798;10.954;2023-05-10T14:22:28;0.32;;;0.30;;
63693;SDS011;49839;51.798;10.954;2023-05-10T14:24:55;1.83;;;0.30;;
63693;SDS011;49839;51.798;10.954;2023-05-10T14:27:23;0.63;;;0.30;;
63693;SDS011;49839;51.798;10.954;2023-05-10T14:29:51;1.58;;;0.50;;
63693;SDS011;49839;51.798;10.954;2023-05-10T14:32:20;1.52;;;0.40;;
63693;SDS011;49839;51.798;10.954;2023-05-10T14:34:48;0.75;;;0.40;;
63693;SDS011;49839;51.798;10.954;2023-05-10T14:37:15;0.35;;;0.25;;
63693;SDS011;49839;51.798;10.954;2023-05-10T14:39:43;0.45;;;0.25;;
63693;SDS011;49839;51.798;10.954;2023-05-10T14:42:11;0.30;;;0.20;;
63693;SDS011;49839;51.798;10.954;2023-05-10T14:44:39;0.65;;;0.22;;
63693;SDS011;49839;51.798;10.954;2023-05-10T14:47:06;1.05;;;0.38;;
63693;SDS011;49839;51.798;10.954;2023-05-10T14:49:37;1.35;;;0.40;;
63693;SDS011;49839;51.798;10.954;2023-05-10T14:52:05;0.50;;;0.30;;
63693;SDS011;49839;51.798;10.954;2023-05-10T14:54:33;3.53;;;0.40;;
63693;SDS011;49839;51.798;10.954;2023-05-10T14:57:00;1.40;;;0.30;;
63693;SDS011;49839;51.798;10.954;2023-05-10T14:59:28;2.22;;;0.30;;
63693;SDS011;49839;51.798;10.954;2023-05-10T15:01:56;1.88;;;0.40;;
63693;SDS011;49839;51.798;10.954;2023-05-10T15:04:23;1.10;;;0.35;;